Terminal Aerodrome Forecast
Issued by NWS Melbourne, FL

Home | Current Version | Previous Version | Text Only | Print | Product List | Glossary On
Versions: 1 2 3 4 5 6 7 8 9 10 11 12 13 14
000
FTUS42 KMLB 211700
TAFMLB
TAF
KMLB 211727Z 2118/2218 20004KT P6SM FEW035 SCT080 BKN250
     FM220000 21003KT P6SM BKN250
     FM221500 01010KT P6SM FEW030 SCT060 BKN250=

USA.gov is the U.S. government's official web portal to all federal, state and local government web resources and services.